createdAt,value
2018-04-12T00:00:20.014Z,9.23
2018-04-12T00:02:47.600Z,9.00
2018-04-12T00:05:15.229Z,9.63
2018-04-12T00:07:42.820Z,9.63
2018-04-12T00:10:10.453Z,10.50
2018-04-12T00:12:38.123Z,10.97
2018-04-12T00:15:05.749Z,10.80
2018-04-12T00:17:33.378Z,9.90
2018-04-12T00:20:01.047Z,10.97
2018-04-12T00:22:28.706Z,10.00
2018-04-12T00:24:56.333Z,13.00
2018-04-12T00:27:24.007Z,10.63
2018-04-12T00:29:51.663Z,10.00
2018-04-12T00:32:19.344Z,12.87
2018-04-12T00:34:47.021Z,12.50
2018-04-12T00:37:14.673Z,10.03
2018-04-12T00:39:42.288Z,11.63
2018-04-12T00:42:09.954Z,10.20
2018-04-12T00:44:37.569Z,10.03
2018-04-12T00:47:05.168Z,9.80
2018-04-12T00:49:32.825Z,10.10
2018-04-12T00:52:00.426Z,10.80
2018-04-12T00:54:28.106Z,13.20
2018-04-12T00:56:55.790Z,10.43
2018-04-12T00:59:23.395Z,10.30
2018-04-12T01:01:51.022Z,11.07
2018-04-12T01:04:18.692Z,11.27
2018-04-12T01:06:46.355Z,11.77
2018-04-12T01:09:13.998Z,10.67
2018-04-12T01:11:41.654Z,13.53
2018-04-12T01:14:09.405Z,11.13
2018-04-12T01:16:37.002Z,11.43
2018-04-12T01:19:04.681Z,12.07
2018-04-12T01:21:32.261Z,11.10
2018-04-12T01:23:59.862Z,11.37
2018-04-12T01:26:27.487Z,12.93
2018-04-12T01:28:55.075Z,12.50
2018-04-12T01:31:22.665Z,12.50
2018-04-12T01:33:50.297Z,12.90
2018-04-12T01:36:17.889Z,12.70
2018-04-12T01:38:45.489Z,12.33
2018-04-12T01:41:13.125Z,11.40
2018-04-12T01:43:40.715Z,12.00
2018-04-12T01:46:08.319Z,13.60
2018-04-12T01:48:35.965Z,11.40
2018-04-12T01:51:03.562Z,12.57
2018-04-12T01:53:31.177Z,10.73
2018-04-12T01:55:58.810Z,11.87
2018-04-12T01:58:26.444Z,12.03
2018-04-12T02:00:54.041Z,11.17
2018-04-12T02:03:21.668Z,10.77
2018-04-12T02:05:49.280Z,10.97
2018-04-12T02:08:16.872Z,12.50
2018-04-12T02:10:44.524Z,11.80
2018-04-12T02:13:12.169Z,12.50
2018-04-12T02:15:39.761Z,12.30
2018-04-12T02:18:07.414Z,11.57
2018-04-12T02:20:35.015Z,12.60
2018-04-12T02:23:02.614Z,12.10
2018-04-12T02:25:30.253Z,12.30
2018-04-12T02:27:57.833Z,11.40
2018-04-12T02:30:25.462Z,12.20
2018-04-12T02:32:53.094Z,11.80
2018-04-12T02:35:20.693Z,11.67
2018-04-12T02:37:48.329Z,10.07
2018-04-12T02:40:15.949Z,12.10
2018-04-12T02:42:43.542Z,11.27
2018-04-12T02:45:11.141Z,10.67
2018-04-12T02:47:38.744Z,11.00
2018-04-12T02:50:06.345Z,13.60
2018-04-12T02:52:33.947Z,14.43
2018-04-12T02:55:01.584Z,11.10
2018-04-12T02:57:29.191Z,13.17
2018-04-12T02:59:56.778Z,11.20
2018-04-12T03:02:24.412Z,12.17
2018-04-12T03:04:52.023Z,12.80
2018-04-12T03:07:19.623Z,12.80
2018-04-12T03:09:47.272Z,11.70
2018-04-12T03:12:14.864Z,13.70
2018-04-12T03:14:42.456Z,11.47
2018-04-12T03:17:10.080Z,10.97
2018-04-12T03:19:37.665Z,12.40
2018-04-12T03:22:05.269Z,12.20
2018-04-12T03:24:32.984Z,10.80
2018-04-12T03:27:00.540Z,12.30
2018-04-12T03:29:28.146Z,12.30
2018-04-12T03:31:55.776Z,11.07
2018-04-12T03:34:23.381Z,10.97
2018-04-12T03:36:50.978Z,13.03
2018-04-12T03:39:18.603Z,11.97
2018-04-12T03:41:46.201Z,10.30
2018-04-12T03:44:13.806Z,11.40
2018-04-12T03:46:41.430Z,12.20
2018-04-12T03:49:09.058Z,12.17
2018-04-12T03:51:36.700Z,11.97
2018-04-12T03:54:04.377Z,11.30
2018-04-12T03:56:31.976Z,13.17
2018-04-12T03:58:59.580Z,12.40
2018-04-12T04:01:27.213Z,11.70
2018-04-12T04:03:54.804Z,10.30
2018-04-12T04:06:22.398Z,10.80
2018-04-12T04:08:50.032Z,9.37
2018-04-12T04:11:17.642Z,9.27
2018-04-12T04:13:45.245Z,9.97
2018-04-12T04:16:24.661Z,10.00
2018-04-12T04:19:03.887Z,9.37
2018-04-12T04:21:32.620Z,9.50
2018-04-12T04:24:00.212Z,8.40
2018-04-12T04:26:27.818Z,8.00
2018-04-12T04:28:55.575Z,10.10
2018-04-12T04:31:23.936Z,9.33
2018-04-12T04:33:51.528Z,6.90
2018-04-12T04:36:19.153Z,9.47
2018-04-12T04:38:46.745Z,7.70
2018-04-12T04:41:14.334Z,7.53
2018-04-12T04:43:42.046Z,9.17
2018-04-12T04:46:09.662Z,7.60
2018-04-12T04:48:37.284Z,8.97
2018-04-12T04:51:04.925Z,7.80
2018-04-12T04:53:32.517Z,8.13
2018-04-12T04:56:00.114Z,7.10
2018-04-12T04:58:27.751Z,8.50
2018-04-12T05:00:55.386Z,9.07
2018-04-12T05:03:23.027Z,10.50
2018-04-12T05:05:50.726Z,7.80
2018-04-12T05:08:18.352Z,7.80
2018-04-12T05:10:45.973Z,8.60
2018-04-12T05:13:13.593Z,10.40
2018-04-12T05:15:41.198Z,7.73
2018-04-12T05:18:25.560Z,7.77
2018-04-12T05:20:53.152Z,7.50
2018-04-12T05:23:20.801Z,10.97
2018-04-12T05:25:48.491Z,8.67
2018-04-12T05:28:16.071Z,9.87
2018-04-12T05:30:43.681Z,10.17
2018-04-12T05:33:11.313Z,8.70
2018-04-12T05:35:38.911Z,8.77
2018-04-12T05:38:06.510Z,10.43
2018-04-12T05:40:34.148Z,8.20
2018-04-12T05:43:01.762Z,9.27
2018-04-12T05:45:29.362Z,9.53
2018-04-12T05:47:57.001Z,7.70
2018-04-12T05:50:24.603Z,7.40
2018-04-12T05:52:52.226Z,7.77
2018-04-12T05:55:19.859Z,7.10
2018-04-12T05:57:47.460Z,7.57
2018-04-12T06:00:15.060Z,7.33
2018-04-12T06:02:42.689Z,6.20
2018-04-12T06:05:10.293Z,6.93
2018-04-12T06:07:37.905Z,7.83
2018-04-12T06:10:05.545Z,9.50
2018-04-12T06:12:33.140Z,8.60
2018-04-12T06:15:00.725Z,6.97
2018-04-12T06:17:28.379Z,8.30
2018-04-12T06:19:55.978Z,9.00
2018-04-12T06:22:23.585Z,8.07
2018-04-12T06:24:51.220Z,11.40
2018-04-12T06:27:18.817Z,11.60
2018-04-12T06:29:46.421Z,10.30
2018-04-12T06:32:14.058Z,9.83
2018-04-12T06:34:41.657Z,10.00
2018-04-12T06:37:09.246Z,7.93
2018-04-12T06:39:36.873Z,7.30
2018-04-12T06:42:04.485Z,7.37
2018-04-12T06:44:32.099Z,13.60
2018-04-12T06:46:59.757Z,6.10
2018-04-12T06:49:27.349Z,6.17
2018-04-12T06:51:54.946Z,5.70
2018-04-12T06:54:22.589Z,5.70
2018-04-12T06:56:50.183Z,7.17
2018-04-12T06:59:17.794Z,5.70
2018-04-12T07:01:45.433Z,7.60
2018-04-12T07:04:13.030Z,8.50
2018-04-12T07:06:40.624Z,7.80
2018-04-12T07:09:08.245Z,7.83
2018-04-12T07:11:35.874Z,12.33
2018-04-12T07:14:03.473Z,14.23
2018-04-12T07:16:31.102Z,20.53
2018-04-12T07:18:58.700Z,24.07
2018-04-12T07:21:26.357Z,25.07
2018-04-12T07:23:53.990Z,24.07
2018-04-12T07:26:21.591Z,25.30
2018-04-12T07:28:49.191Z,23.90
2018-04-12T07:31:16.826Z,22.33
2018-04-12T07:33:44.428Z,22.10
2018-04-12T07:36:12.025Z,18.37
2018-04-12T07:38:39.684Z,19.10
2018-04-12T07:41:07.336Z,17.00
2018-04-12T07:43:34.968Z,15.83
2018-04-12T07:46:02.597Z,17.30
2018-04-12T07:48:30.189Z,12.03
2018-04-12T07:50:57.781Z,14.00
2018-04-12T07:53:25.436Z,12.80
2018-04-12T07:55:53.055Z,13.20
2018-04-12T07:58:20.644Z,10.50
2018-04-12T08:00:48.274Z,10.63
2018-04-12T08:03:15.860Z,6.53
2018-04-12T08:05:43.440Z,6.77
2018-04-12T08:08:11.067Z,8.00
2018-04-12T08:10:38.659Z,8.17
2018-04-12T08:13:06.253Z,8.63
2018-04-12T08:15:33.910Z,6.40
2018-04-12T08:18:01.529Z,7.27
2018-04-12T08:20:29.223Z,7.43
2018-04-12T08:22:56.867Z,7.70
2018-04-12T08:25:24.467Z,5.97
2018-04-12T08:27:52.060Z,5.73
2018-04-12T08:30:19.688Z,5.80
2018-04-12T08:32:47.288Z,6.10
2018-04-12T08:35:14.881Z,6.37
2018-04-12T08:37:42.509Z,6.97
2018-04-12T08:40:10.097Z,5.40
2018-04-12T08:42:37.711Z,10.10
2018-04-12T08:45:05.356Z,8.33
2018-04-12T08:47:32.952Z,6.83
2018-04-12T08:50:00.636Z,6.67
2018-04-12T08:52:28.265Z,5.80
2018-04-12T08:54:55.862Z,7.13
2018-04-12T08:57:23.462Z,6.10
2018-04-12T08:59:51.089Z,7.90
2018-04-12T09:02:18.678Z,6.03
2018-04-12T09:04:46.303Z,5.77
2018-04-12T09:07:13.940Z,5.53
2018-04-12T09:09:41.521Z,5.30
2018-04-12T09:12:09.104Z,6.27
2018-04-12T09:14:36.732Z,5.70
2018-04-12T09:17:04.342Z,5.97
2018-04-12T09:19:31.931Z,5.33
2018-04-12T09:21:59.601Z,5.57
2018-04-12T09:24:27.193Z,5.83
2018-04-12T09:26:54.785Z,5.97
2018-04-12T09:29:22.483Z,4.95
2018-04-12T09:31:50.072Z,5.67
2018-04-12T09:34:17.668Z,6.53
2018-04-12T09:36:45.354Z,7.03
2018-04-12T09:39:12.945Z,5.22
2018-04-12T09:41:40.549Z,5.15
2018-04-12T09:44:08.161Z,4.93
2018-04-12T09:46:35.760Z,5.33
2018-04-12T09:49:03.413Z,4.97
2018-04-12T09:51:31.058Z,4.93
2018-04-12T09:53:58.645Z,4.90
2018-04-12T09:56:26.237Z,3.95
2018-04-12T09:58:53.952Z,5.12
2018-04-12T10:01:21.592Z,5.43
2018-04-12T10:03:49.246Z,4.80
2018-04-12T10:06:22.846Z,4.63
2018-04-12T10:08:55.903Z,5.43
2018-04-12T10:11:23.495Z,4.80
2018-04-12T10:13:51.118Z,5.93
2018-04-12T10:16:18.716Z,5.03
2018-04-12T10:18:46.340Z,4.28
2018-04-12T10:21:13.910Z,4.40
2018-04-12T10:23:41.473Z,5.57
2018-04-12T10:26:09.117Z,6.95
2018-04-12T10:28:36.689Z,4.47
2018-04-12T10:31:05.166Z,5.00
2018-04-12T10:33:32.863Z,4.95
2018-04-12T10:36:00.449Z,5.65
2018-04-12T10:38:28.699Z,4.80
2018-04-12T10:40:56.308Z,4.87
2018-04-12T10:43:23.972Z,5.53
2018-04-12T10:45:51.593Z,5.53
2018-04-12T10:48:19.227Z,4.37
2018-04-12T10:50:46.815Z,3.90
2018-04-12T10:53:14.396Z,3.80
2018-04-12T10:55:42.043Z,3.87
2018-04-12T10:58:09.650Z,5.00
2018-04-12T11:00:37.251Z,4.47
2018-04-12T11:03:04.861Z,5.03
2018-04-12T11:05:32.448Z,4.72
2018-04-12T11:08:00.030Z,3.95
2018-04-12T11:10:27.654Z,4.35
2018-04-12T11:12:55.365Z,3.90
2018-04-12T11:15:22.952Z,4.57
2018-04-12T11:17:50.580Z,4.97
2018-04-12T11:20:18.305Z,4.50
2018-04-12T11:22:45.887Z,6.10
2018-04-12T11:25:13.569Z,4.53
2018-04-12T11:27:41.168Z,5.10
2018-04-12T11:30:08.757Z,3.87
2018-04-12T11:32:36.400Z,6.87
2018-04-12T11:35:04.015Z,11.35
2018-04-12T11:37:31.610Z,4.62
2018-04-12T11:39:59.300Z,4.03
2018-04-12T11:42:26.878Z,4.18
2018-04-12T11:44:54.472Z,3.92
2018-04-12T11:47:22.080Z,3.10
2018-04-12T11:49:49.868Z,3.67
2018-04-12T11:52:17.429Z,4.55
2018-04-12T11:54:45.065Z,3.85
2018-04-12T11:57:12.644Z,3.67
2018-04-12T11:59:40.264Z,3.30
2018-04-12T12:02:07.871Z,4.70
2018-04-12T12:04:35.457Z,4.47
2018-04-12T12:07:03.194Z,4.22
2018-04-12T12:09:30.810Z,4.25
2018-04-12T12:11:58.534Z,4.10
2018-04-12T12:14:26.121Z,4.05
2018-04-12T12:16:53.745Z,3.83
2018-04-12T12:19:21.531Z,3.87
2018-04-12T12:21:49.090Z,4.05
2018-04-12T12:24:16.690Z,4.05
2018-04-12T12:26:44.278Z,4.50
2018-04-12T12:29:11.844Z,4.12
2018-04-12T12:31:39.446Z,3.55
2018-04-12T12:34:07.016Z,4.70
2018-04-12T12:36:34.601Z,3.83
2018-04-12T12:39:02.215Z,3.60
2018-04-12T12:41:29.799Z,3.08
2018-04-12T12:43:57.375Z,3.50
2018-04-12T12:46:24.989Z,3.75
2018-04-12T12:48:52.583Z,4.20
2018-04-12T12:51:20.155Z,3.40
2018-04-12T12:53:47.767Z,3.10
2018-04-12T12:56:15.340Z,3.75
2018-04-12T12:58:42.914Z,4.20
2018-04-12T13:01:10.530Z,2.30
2018-04-12T13:03:38.107Z,3.20
2018-04-12T13:06:05.697Z,3.80
2018-04-12T13:08:33.310Z,4.53
2018-04-12T13:11:00.878Z,3.95
2018-04-12T13:13:28.502Z,5.25
2018-04-12T13:15:56.085Z,4.67
2018-04-12T13:18:23.669Z,6.03
2018-04-12T13:20:51.256Z,4.03
2018-04-12T13:23:18.907Z,4.63
2018-04-12T13:25:46.494Z,3.50
2018-04-12T13:28:14.128Z,4.20
2018-04-12T13:30:41.758Z,4.13
2018-04-12T13:33:09.399Z,3.93
2018-04-12T13:35:37.012Z,5.00
2018-04-12T13:38:04.638Z,5.57
2018-04-12T13:40:32.325Z,4.50
2018-04-12T13:42:59.927Z,5.03
2018-04-12T13:45:27.544Z,3.97
2018-04-12T13:47:55.143Z,4.63
2018-04-12T13:50:22.720Z,4.47
2018-04-12T13:52:50.340Z,4.47
2018-04-12T13:55:17.943Z,5.30
2018-04-12T13:57:45.558Z,4.00
2018-04-12T14:00:13.181Z,5.90
2018-04-12T14:02:40.770Z,4.20
2018-04-12T14:05:08.345Z,5.80
2018-04-12T14:07:36.034Z,4.63
2018-04-12T14:10:03.619Z,4.53
2018-04-12T14:12:31.184Z,5.70
2018-04-12T14:14:58.805Z,4.13
2018-04-12T14:17:26.403Z,5.00
2018-04-12T14:19:54.102Z,4.23
2018-04-12T14:22:21.750Z,5.53
2018-04-12T14:24:49.324Z,4.90
2018-04-12T14:27:16.905Z,5.87
2018-04-12T14:29:44.573Z,5.60
2018-04-12T14:32:12.163Z,5.50
2018-04-12T14:34:39.742Z,5.73
2018-04-12T14:37:07.369Z,4.43
2018-04-12T14:39:34.930Z,5.90
2018-04-12T14:42:02.523Z,4.60
2018-04-12T14:44:30.137Z,6.03
2018-04-12T14:46:57.736Z,5.00
2018-04-12T14:49:25.325Z,5.00
2018-04-12T14:51:52.960Z,4.07
2018-04-12T14:54:20.544Z,4.63
2018-04-12T14:56:48.117Z,4.47
2018-04-12T14:59:15.718Z,5.40
2018-04-12T15:01:43.296Z,5.30
2018-04-12T15:04:10.877Z,5.10
2018-04-12T15:06:38.584Z,3.70
2018-04-12T15:09:06.220Z,6.97
2018-04-12T15:11:33.810Z,5.50
2018-04-12T15:14:01.437Z,5.27
2018-04-12T15:16:29.021Z,5.80
2018-04-12T15:18:56.601Z,4.73
2018-04-12T15:21:24.222Z,4.53
2018-04-12T15:23:51.852Z,4.23
2018-04-12T15:26:19.431Z,4.77
2018-04-12T15:28:47.073Z,4.73
2018-04-12T15:31:14.677Z,5.27
2018-04-12T15:33:42.376Z,5.67
2018-04-12T15:36:09.997Z,4.90
2018-04-12T15:38:37.686Z,4.93
2018-04-12T15:41:05.282Z,5.07
2018-04-12T15:43:32.888Z,4.93
2018-04-12T15:46:00.472Z,5.70
2018-04-12T15:48:28.059Z,6.07
2018-04-12T15:50:55.682Z,5.93
2018-04-12T15:53:23.271Z,4.63
2018-04-12T15:55:50.876Z,5.63
2018-04-12T15:58:18.497Z,5.70
2018-04-12T16:00:46.102Z,6.23
2018-04-12T16:03:13.689Z,5.90
2018-04-12T16:05:42.054Z,6.40
2018-04-12T16:08:09.630Z,6.27
2018-04-12T16:10:37.378Z,5.60
2018-04-12T16:13:04.972Z,5.40
2018-04-12T16:15:32.546Z,8.37
2018-04-12T16:18:00.137Z,6.17
2018-04-12T16:20:27.748Z,5.80
2018-04-12T16:22:55.346Z,6.43
2018-04-12T16:25:22.927Z,6.30
2018-04-12T16:27:50.558Z,7.70
2018-04-12T16:30:18.152Z,6.30
2018-04-12T16:32:45.750Z,11.03
2018-04-12T16:35:13.360Z,7.40
2018-04-12T16:37:40.930Z,9.53
2018-04-12T16:40:08.517Z,8.77
2018-04-12T16:42:36.134Z,6.60
2018-04-12T16:45:03.759Z,6.47
2018-04-12T16:47:31.358Z,7.17
2018-04-12T16:49:58.999Z,8.20
2018-04-12T16:52:26.902Z,9.60
2018-04-12T16:54:54.521Z,9.17
2018-04-12T16:57:22.133Z,9.23
2018-04-12T16:59:49.753Z,7.73
2018-04-12T17:02:17.372Z,9.20
2018-04-12T17:04:44.984Z,9.67
2018-04-12T17:07:12.677Z,8.70
2018-04-12T17:09:40.317Z,9.83
2018-04-12T17:12:07.965Z,10.33
2018-04-12T17:14:35.602Z,11.43
2018-04-12T17:17:03.239Z,7.40
2018-04-12T17:19:30.903Z,11.77
2018-04-12T17:21:58.570Z,8.23
2018-04-12T17:24:26.231Z,10.27
2018-04-12T17:26:54.148Z,8.20
2018-04-12T17:29:21.843Z,8.97
2018-04-12T17:31:49.461Z,10.60
2018-04-12T17:34:17.094Z,10.83
2018-04-12T17:36:44.695Z,9.90
2018-04-12T17:39:12.290Z,10.30
2018-04-12T17:41:39.926Z,8.40
2018-04-12T17:44:07.549Z,9.07
2018-04-12T17:46:35.148Z,9.70
2018-04-12T17:49:02.791Z,9.83
2018-04-12T17:51:30.396Z,12.70
2018-04-12T17:53:57.991Z,8.43
2018-04-12T17:56:25.625Z,9.93
2018-04-12T17:58:53.272Z,9.17
2018-04-12T18:01:20.869Z,10.23
2018-04-12T18:03:48.526Z,12.33
2018-04-12T18:06:16.125Z,10.07
2018-04-12T18:08:43.721Z,10.63
2018-04-12T18:11:11.356Z,12.67
2018-04-12T18:13:38.943Z,11.10
2018-04-12T18:16:06.536Z,13.90
2018-04-12T18:18:34.149Z,13.13
2018-04-12T18:21:01.736Z,11.80
2018-04-12T18:23:29.312Z,13.67
2018-04-12T18:25:56.943Z,13.03
2018-04-12T18:28:24.529Z,13.70
2018-04-12T18:30:52.117Z,13.67
2018-04-12T18:33:19.734Z,13.23
2018-04-12T18:35:47.330Z,13.30
2018-04-12T18:38:14.932Z,14.40
2018-04-12T18:40:42.639Z,13.60
2018-04-12T18:43:10.274Z,16.10
2018-04-12T18:45:37.848Z,17.10
2018-04-12T18:48:05.460Z,15.00
2018-04-12T18:50:33.036Z,15.67
2018-04-12T18:53:00.615Z,16.17
2018-04-12T18:55:28.280Z,12.33
2018-04-12T18:57:56.044Z,16.60
2018-04-12T19:00:23.623Z,11.47
2018-04-12T19:02:51.230Z,16.10
2018-04-12T19:05:18.802Z,14.10
2018-04-12T19:07:46.404Z,15.57
2018-04-12T19:10:14.019Z,15.77
2018-04-12T19:12:41.615Z,17.73
2018-04-12T19:15:09.195Z,16.23
2018-04-12T19:17:36.836Z,16.50
2018-04-12T19:20:04.414Z,15.23
2018-04-12T19:22:32.028Z,16.00
2018-04-12T19:24:59.650Z,14.60
2018-04-12T19:27:27.296Z,14.13
2018-04-12T19:29:54.871Z,16.03
2018-04-12T19:32:22.471Z,16.70
2018-04-12T19:34:50.066Z,18.63
2018-04-12T19:37:17.694Z,17.57
2018-04-12T19:39:45.296Z,15.07
2018-04-12T19:42:18.808Z,15.00
2018-04-12T19:44:46.478Z,18.77
2018-04-12T19:47:14.064Z,15.33
2018-04-12T19:49:41.656Z,18.20
2018-04-12T19:52:09.325Z,16.93
2018-04-12T19:54:36.900Z,14.43
2018-04-12T19:57:04.477Z,15.17
2018-04-12T19:59:32.102Z,16.00
2018-04-12T20:01:59.686Z,16.00
2018-04-12T20:04:27.328Z,16.73
2018-04-12T20:06:54.936Z,17.17
2018-04-12T20:09:22.553Z,13.50
2018-04-12T20:11:50.177Z,16.57
2018-04-12T20:14:17.802Z,17.60
2018-04-12T20:16:45.390Z,17.40
2018-04-12T20:19:12.968Z,17.00
2018-04-12T20:21:40.576Z,16.57
2018-04-12T20:24:08.156Z,15.20
2018-04-12T20:26:35.733Z,13.50
2018-04-12T20:29:03.347Z,16.80
2018-04-12T20:31:30.933Z,13.43
2018-04-12T20:33:58.525Z,14.93
2018-04-12T20:36:26.219Z,14.17
2018-04-12T20:38:53.806Z,13.93
2018-04-12T20:41:21.450Z,11.80
2018-04-12T20:43:49.089Z,12.70
2018-04-12T20:46:16.681Z,11.77
2018-04-12T20:48:44.399Z,12.13
2018-04-12T20:51:12.102Z,10.50
2018-04-12T20:53:39.698Z,12.30
2018-04-12T20:56:07.305Z,12.20
2018-04-12T20:58:34.922Z,9.60
2018-04-12T21:01:02.577Z,9.73
2018-04-12T21:03:30.184Z,12.23
2018-04-12T21:05:57.817Z,10.43
2018-04-12T21:08:25.428Z,11.23
2018-04-12T21:10:53.090Z,9.93
2018-04-12T21:13:20.716Z,11.10
2018-04-12T21:15:48.311Z,11.33
2018-04-12T21:18:15.906Z,10.60
2018-04-12T21:20:43.543Z,8.53
2018-04-12T21:23:11.124Z,10.60
2018-04-12T21:25:38.719Z,8.70
2018-04-12T21:28:06.341Z,10.60
2018-04-12T21:30:33.928Z,10.70
2018-04-12T21:33:01.513Z,8.57
2018-04-12T21:35:29.170Z,6.50
2018-04-12T21:37:56.762Z,6.63
2018-04-12T21:40:24.362Z,12.03
2018-04-12T21:42:52.035Z,11.43
2018-04-12T21:45:19.620Z,9.00
2018-04-12T21:47:47.198Z,7.97
2018-04-12T21:50:14.819Z,13.80
2018-04-12T21:52:42.394Z,14.83
2018-04-12T21:55:09.983Z,17.03
2018-04-12T21:57:37.609Z,15.27
2018-04-12T22:00:05.256Z,14.37
2018-04-12T22:02:32.844Z,16.57
2018-04-12T22:05:00.470Z,15.80
2018-04-12T22:07:28.086Z,15.90
2018-04-12T22:09:55.674Z,12.00
2018-04-12T22:12:23.328Z,11.47
2018-04-12T22:14:50.905Z,16.03
2018-04-12T22:17:18.531Z,16.63
2018-04-12T22:19:46.188Z,14.33
2018-04-12T22:22:13.941Z,17.57
2018-04-12T22:24:41.525Z,19.70
2018-04-12T22:27:09.177Z,20.50
2018-04-12T22:29:36.940Z,16.03
2018-04-12T22:32:04.601Z,15.17
2018-04-12T22:34:32.233Z,15.27
2018-04-12T22:36:59.863Z,13.83
2018-04-12T22:39:27.505Z,14.40
2018-04-12T22:41:55.134Z,14.63
2018-04-12T22:44:22.736Z,17.40
2018-04-12T22:46:50.321Z,18.70
2018-04-12T22:49:17.942Z,18.00
2018-04-12T22:51:45.905Z,14.60
2018-04-12T22:54:13.499Z,14.10
2018-04-12T22:56:41.408Z,15.10
2018-04-12T22:59:09.276Z,14.30
2018-04-12T23:01:36.897Z,14.60
2018-04-12T23:04:04.536Z,14.97
2018-04-12T23:06:32.234Z,14.40
2018-04-12T23:08:59.797Z,14.10
2018-04-12T23:11:27.419Z,17.00
2018-04-12T23:13:55.017Z,13.13
2018-04-12T23:16:22.720Z,15.20
2018-04-12T23:18:50.351Z,19.40
2018-04-12T23:21:18.055Z,17.03
2018-04-12T23:23:45.719Z,14.83
2018-04-12T23:26:13.380Z,16.30
2018-04-12T23:28:40.972Z,16.20
2018-04-12T23:31:08.693Z,19.67
2018-04-12T23:33:36.367Z,17.47
2018-04-12T23:36:04.029Z,19.13
2018-04-12T23:38:31.772Z,14.90
2018-04-12T23:40:59.384Z,14.90
2018-04-12T23:43:26.981Z,16.17
2018-04-12T23:45:54.573Z,17.57
2018-04-12T23:48:22.545Z,20.27
2018-04-12T23:50:50.138Z,16.63
2018-04-12T23:53:17.870Z,17.37
2018-04-12T23:55:45.524Z,18.50
2018-04-12T23:58:13.157Z,18.00
